createdAt,value
2017-06-23T00:00:18.473Z,15.00
2017-06-23T00:02:46.783Z,13.90
2017-06-23T00:05:15.158Z,13.43
2017-06-23T00:07:43.409Z,12.33
2017-06-23T00:10:11.665Z,12.93
2017-06-23T00:12:40.763Z,13.37
2017-06-23T00:15:09.785Z,13.60
2017-06-23T00:17:38.053Z,14.80
2017-06-23T00:20:06.301Z,14.53
2017-06-23T00:22:35.339Z,14.63
2017-06-23T00:25:03.590Z,13.43
2017-06-23T00:27:31.893Z,14.20
2017-06-23T00:30:00.150Z,14.30
2017-06-23T00:32:28.506Z,16.00
2017-06-23T00:34:56.770Z,15.07
2017-06-23T00:37:25.864Z,14.80
2017-06-23T00:39:54.873Z,15.47
2017-06-23T00:42:23.141Z,15.53
2017-06-23T00:44:52.157Z,13.77
2017-06-23T00:47:20.421Z,15.57
2017-06-23T00:49:48.669Z,14.23
2017-06-23T00:52:17.701Z,14.77
2017-06-23T00:54:45.981Z,16.10
2017-06-23T00:57:14.249Z,14.90
2017-06-23T00:59:42.536Z,14.50
2017-06-23T01:02:10.817Z,13.87
2017-06-23T01:04:39.142Z,14.23
2017-06-23T01:07:08.186Z,14.70
2017-06-23T01:09:36.460Z,13.70
2017-06-23T01:12:04.841Z,13.10
2017-06-23T01:14:33.097Z,15.43
2017-06-23T01:17:01.412Z,14.43
2017-06-23T01:19:29.665Z,15.23
2017-06-23T01:21:57.909Z,14.70
2017-06-23T01:24:26.169Z,14.13
2017-06-23T01:26:55.211Z,15.00
2017-06-23T01:29:23.469Z,14.03
2017-06-23T01:31:51.779Z,15.80
2017-06-23T01:34:20.048Z,14.53
2017-06-23T01:36:48.624Z,13.77
2017-06-23T01:39:16.875Z,14.10
2017-06-23T01:41:45.683Z,14.97
2017-06-23T01:44:13.937Z,15.47
2017-06-23T01:46:42.198Z,17.40
2017-06-23T01:49:11.325Z,18.47
2017-06-23T01:51:39.585Z,17.03
2017-06-23T01:54:07.855Z,16.97
2017-06-23T01:56:36.094Z,16.30
2017-06-23T01:59:04.374Z,16.20
2017-06-23T02:01:32.709Z,16.27
2017-06-23T02:04:01.081Z,14.63
2017-06-23T02:06:29.332Z,16.70
2017-06-23T02:08:57.590Z,15.20
2017-06-23T02:11:26.648Z,16.50
2017-06-23T02:13:54.932Z,14.17
2017-06-23T02:16:23.173Z,14.33
2017-06-23T02:18:51.549Z,15.57
2017-06-23T02:21:19.802Z,15.97
2017-06-23T02:23:48.085Z,14.03
2017-06-23T02:26:16.335Z,14.30
2017-06-23T02:28:45.347Z,16.10
2017-06-23T02:31:13.614Z,15.37
2017-06-23T02:33:42.629Z,15.90
2017-06-23T02:36:10.920Z,15.60
2017-06-23T02:38:39.171Z,17.40
2017-06-23T02:41:07.429Z,15.63
2017-06-23T02:43:36.445Z,16.77
2017-06-23T02:46:04.745Z,14.90
2017-06-23T02:48:33.156Z,15.57
2017-06-23T02:51:01.403Z,16.80
2017-06-23T02:53:29.737Z,14.17
2017-06-23T02:55:58.046Z,14.80
2017-06-23T02:58:26.343Z,14.83
2017-06-23T03:00:54.603Z,14.47
2017-06-23T03:03:22.940Z,15.37
2017-06-23T03:05:51.201Z,15.47
2017-06-23T03:08:20.227Z,16.30
2017-06-23T03:10:48.490Z,17.47
2017-06-23T03:13:20.659Z,16.30
2017-06-23T03:15:50.806Z,16.17
2017-06-23T03:18:19.329Z,15.33
2017-06-23T03:20:47.656Z,15.50
2017-06-23T03:23:15.912Z,14.40
2017-06-23T03:25:44.180Z,14.30
2017-06-23T03:28:12.421Z,15.80
2017-06-23T03:30:40.766Z,15.23
2017-06-23T03:33:09.061Z,16.77
2017-06-23T03:35:37.332Z,15.70
2017-06-23T03:38:05.578Z,13.57
2017-06-23T03:40:33.906Z,15.10
2017-06-23T03:43:02.361Z,14.03
2017-06-23T03:45:30.605Z,13.83
2017-06-23T03:47:58.952Z,17.50
2017-06-23T03:50:27.965Z,14.60
2017-06-23T03:52:56.264Z,15.80
2017-06-23T03:55:24.509Z,16.83
2017-06-23T03:57:52.773Z,17.40
2017-06-23T04:00:21.785Z,15.50
2017-06-23T04:02:50.085Z,15.63
2017-06-23T04:05:18.325Z,16.23
2017-06-23T04:07:46.585Z,15.60
2017-06-23T04:10:15.633Z,15.20
2017-06-23T04:12:44.005Z,14.93
2017-06-23T04:15:12.252Z,19.10
2017-06-23T04:17:40.514Z,15.33
2017-06-23T04:20:09.526Z,12.80
2017-06-23T04:22:37.927Z,14.20
2017-06-23T04:25:06.196Z,14.57
2017-06-23T04:27:34.462Z,15.83
2017-06-23T04:30:02.779Z,14.47
2017-06-23T04:32:31.031Z,14.97
2017-06-23T04:34:59.278Z,15.00
2017-06-23T04:37:27.601Z,15.27
2017-06-23T04:39:55.956Z,15.57
2017-06-23T04:42:24.221Z,15.07
2017-06-23T04:44:52.548Z,16.27
2017-06-23T04:47:20.894Z,14.43
2017-06-23T04:49:49.149Z,15.70
2017-06-23T04:52:17.397Z,15.80
2017-06-23T04:54:46.425Z,15.07
2017-06-23T04:57:14.685Z,14.87
2017-06-23T04:59:42.959Z,13.97
2017-06-23T05:02:11.215Z,14.80
2017-06-23T05:04:40.486Z,14.60
2017-06-23T05:07:08.763Z,14.80
2017-06-23T05:09:37.023Z,15.70
2017-06-23T05:12:05.269Z,16.93
2017-06-23T05:14:33.618Z,17.37
2017-06-23T05:17:02.220Z,17.17
2017-06-23T05:19:30.486Z,16.30
2017-06-23T05:21:58.838Z,16.03
2017-06-23T05:24:27.114Z,17.20
2017-06-23T05:26:55.437Z,18.17
2017-06-23T05:29:23.775Z,18.40
2017-06-23T05:31:52.790Z,19.47
2017-06-23T05:34:21.063Z,19.60
2017-06-23T05:36:50.629Z,20.33
2017-06-23T05:39:18.981Z,18.37
2017-06-23T05:41:47.227Z,18.67
2017-06-23T05:44:16.323Z,18.80
2017-06-23T05:46:44.985Z,18.47
2017-06-23T05:49:13.345Z,16.93
2017-06-23T05:51:41.613Z,17.07
2017-06-23T05:54:09.893Z,14.27
2017-06-23T05:56:38.130Z,14.10
2017-06-23T05:59:06.393Z,13.37
2017-06-23T06:01:34.640Z,8.93
2017-06-23T06:04:03.681Z,9.83
2017-06-23T06:06:32.712Z,13.73
2017-06-23T06:09:01.843Z,13.33
2017-06-23T06:11:30.794Z,10.93
2017-06-23T06:14:00.407Z,12.27
2017-06-23T06:16:29.309Z,12.70
2017-06-23T06:18:59.721Z,11.20
2017-06-23T06:21:30.294Z,13.67
2017-06-23T06:23:59.303Z,13.90
2017-06-23T06:26:28.402Z,15.60
2017-06-23T06:28:57.054Z,14.07
2017-06-23T06:31:25.453Z,13.97
2017-06-23T06:33:53.762Z,13.73
2017-06-23T06:36:22.117Z,13.67
2017-06-23T06:38:50.452Z,13.70
2017-06-23T06:41:19.483Z,14.43
2017-06-23T06:43:48.317Z,14.20
2017-06-23T06:46:18.332Z,13.90
2017-06-23T06:48:48.043Z,16.43
2017-06-23T06:51:17.778Z,13.43
2017-06-23T06:53:46.992Z,12.27
2017-06-23T06:56:15.837Z,14.07
2017-06-23T06:58:44.294Z,13.70
2017-06-23T07:01:12.555Z,16.20
2017-06-23T07:03:40.801Z,13.77
2017-06-23T07:06:09.124Z,14.07
2017-06-23T07:08:37.393Z,13.43
2017-06-23T07:11:05.666Z,15.63
2017-06-23T07:13:33.968Z,12.20
2017-06-23T07:16:02.230Z,12.10
2017-06-23T07:18:30.476Z,12.07
2017-06-23T07:20:59.696Z,12.27
2017-06-23T07:23:28.713Z,11.30
2017-06-23T07:25:57.809Z,12.20
2017-06-23T07:28:27.938Z,10.30
2017-06-23T07:30:57.488Z,9.43
2017-06-23T07:33:26.593Z,9.50
2017-06-23T07:35:55.414Z,9.77
2017-06-23T07:38:25.328Z,10.10
2017-06-23T07:40:54.542Z,8.73
2017-06-23T07:43:24.603Z,9.60
2017-06-23T07:45:54.020Z,9.60
2017-06-23T07:48:23.476Z,8.77
2017-06-23T07:50:51.841Z,9.90
2017-06-23T07:53:20.919Z,9.33
2017-06-23T07:55:49.261Z,8.90
2017-06-23T07:58:17.521Z,10.00
2017-06-23T08:00:45.758Z,9.83
2017-06-23T08:03:14.789Z,9.90
2017-06-23T08:05:43.047Z,9.90
2017-06-23T08:08:11.305Z,10.07
2017-06-23T08:10:40.345Z,9.47
2017-06-23T08:13:08.601Z,10.13
2017-06-23T08:15:36.935Z,15.47
2017-06-23T08:18:05.200Z,11.60
2017-06-23T08:20:34.307Z,11.00
2017-06-23T08:23:02.992Z,9.87
2017-06-23T08:25:31.302Z,9.60
2017-06-23T08:27:59.568Z,10.53
2017-06-23T08:30:27.834Z,10.77
2017-06-23T08:32:56.958Z,10.00
2017-06-23T08:35:25.211Z,10.00
2017-06-23T08:37:53.500Z,10.30
2017-06-23T08:40:21.745Z,9.73
2017-06-23T08:42:51.502Z,10.37
2017-06-23T08:45:20.853Z,9.33
2017-06-23T08:47:49.740Z,9.37
2017-06-23T08:50:19.871Z,9.00
2017-06-23T08:52:50.094Z,8.97
2017-06-23T08:55:18.766Z,8.93
2017-06-23T08:57:47.161Z,8.33
2017-06-23T09:00:16.182Z,8.90
2017-06-23T09:02:44.420Z,8.40
2017-06-23T09:05:13.489Z,7.90
2017-06-23T09:07:41.724Z,7.17
2017-06-23T09:10:09.982Z,8.60
2017-06-23T09:12:38.991Z,8.13
2017-06-23T09:15:07.245Z,11.20
2017-06-23T09:17:35.566Z,8.90
2017-06-23T09:20:03.818Z,9.13
2017-06-23T09:22:32.054Z,6.87
2017-06-23T09:25:00.386Z,7.03
2017-06-23T09:27:28.705Z,7.30
2017-06-23T09:29:56.957Z,7.97
2017-06-23T09:32:25.313Z,6.57
2017-06-23T09:34:53.580Z,6.83
2017-06-23T09:37:21.826Z,11.40
2017-06-23T09:39:50.958Z,6.97
2017-06-23T09:42:19.212Z,7.03
2017-06-23T09:44:47.480Z,6.80
2017-06-23T09:47:15.742Z,7.20
2017-06-23T09:49:44.785Z,7.37
2017-06-23T09:52:14.077Z,6.87
2017-06-23T09:54:43.949Z,6.83
2017-06-23T09:57:14.256Z,6.60
2017-06-23T09:59:43.901Z,7.30
2017-06-23T10:02:12.854Z,6.57
2017-06-23T10:04:41.932Z,7.07
2017-06-23T10:07:10.941Z,7.70
2017-06-23T10:09:39.936Z,6.63
2017-06-23T10:12:08.372Z,6.60
2017-06-23T10:14:36.613Z,6.10
2017-06-23T10:17:05.738Z,6.57
2017-06-23T10:19:34.016Z,5.87
2017-06-23T10:22:02.274Z,6.37
2017-06-23T10:24:30.580Z,6.30
2017-06-23T10:26:58.953Z,8.03
2017-06-23T10:29:27.176Z,6.70
2017-06-23T10:31:56.196Z,7.70
2017-06-23T10:34:24.428Z,6.00
2017-06-23T10:36:52.698Z,6.50
2017-06-23T10:39:20.933Z,6.63
2017-06-23T10:41:49.189Z,7.27
2017-06-23T10:44:17.482Z,6.60
2017-06-23T10:46:45.786Z,6.53
2017-06-23T10:49:14.141Z,7.30
2017-06-23T10:51:42.386Z,7.13
2017-06-23T10:54:11.463Z,7.40
2017-06-23T10:56:40.969Z,6.77
2017-06-23T10:59:09.289Z,6.53
2017-06-23T11:01:37.542Z,6.30
2017-06-23T11:04:05.871Z,6.23
2017-06-23T11:06:34.145Z,7.53
2017-06-23T11:09:02.385Z,7.03
2017-06-23T11:11:30.684Z,6.53
2017-06-23T11:13:58.937Z,6.33
2017-06-23T11:16:27.182Z,6.50
2017-06-23T11:18:56.195Z,7.07
2017-06-23T11:21:24.430Z,6.60
2017-06-23T11:23:52.685Z,6.70
2017-06-23T11:26:21.032Z,6.30
2017-06-23T11:28:49.328Z,5.80
2017-06-23T11:31:17.588Z,6.63
2017-06-23T11:33:45.917Z,6.43
2017-06-23T11:36:14.944Z,6.33
2017-06-23T11:38:43.259Z,6.60
2017-06-23T11:41:11.486Z,6.50
2017-06-23T11:43:39.769Z,6.07
2017-06-23T11:46:08.037Z,6.57
2017-06-23T11:48:36.351Z,6.97
2017-06-23T11:51:04.595Z,6.87
2017-06-23T11:53:32.892Z,5.63
2017-06-23T11:56:01.143Z,6.40
2017-06-23T11:58:29.401Z,6.90
2017-06-23T12:00:57.643Z,6.40
2017-06-23T12:03:25.893Z,6.10
2017-06-23T12:05:54.136Z,7.27
2017-06-23T12:08:22.393Z,7.07
2017-06-23T12:10:51.407Z,6.47
2017-06-23T12:13:19.698Z,7.57
2017-06-23T12:15:48.006Z,7.63
2017-06-23T12:18:16.263Z,6.40
2017-06-23T12:20:44.509Z,6.63
2017-06-23T12:23:12.839Z,6.50
2017-06-23T12:25:41.090Z,6.20
2017-06-23T12:28:09.354Z,7.40
2017-06-23T12:30:37.601Z,8.80
2017-06-23T12:33:05.862Z,10.30
2017-06-23T12:35:34.339Z,7.10
2017-06-23T12:38:02.660Z,7.07
2017-06-23T12:40:30.917Z,7.40
2017-06-23T12:42:59.158Z,7.80
2017-06-23T12:45:28.268Z,7.00
2017-06-23T12:47:57.348Z,6.87
2017-06-23T12:50:26.372Z,6.83
2017-06-23T12:52:54.667Z,7.00
2017-06-23T12:55:22.908Z,7.80
2017-06-23T12:57:51.214Z,8.37
2017-06-23T13:00:19.594Z,7.70
2017-06-23T13:02:48.653Z,7.33
2017-06-23T13:05:16.961Z,8.70
2017-06-23T13:07:45.201Z,7.30
2017-06-23T13:10:14.222Z,6.50
2017-06-23T13:12:42.677Z,8.57
2017-06-23T13:15:10.917Z,7.17
2017-06-23T13:17:39.265Z,7.40
2017-06-23T13:20:07.517Z,8.07
2017-06-23T13:22:35.781Z,8.10
2017-06-23T13:25:04.033Z,6.40
2017-06-23T13:27:32.285Z,7.87
2017-06-23T13:30:00.533Z,6.80
2017-06-23T13:32:28.834Z,7.87
2017-06-23T13:34:57.164Z,6.57
2017-06-23T13:37:25.415Z,7.07
2017-06-23T13:39:53.678Z,6.60
2017-06-23T13:42:22.023Z,6.53
2017-06-23T13:44:50.255Z,6.00
2017-06-23T13:47:19.393Z,6.10
2017-06-23T13:49:47.621Z,6.80
2017-06-23T13:52:16.637Z,6.33
2017-06-23T13:54:44.878Z,6.70
2017-06-23T13:57:14.026Z,7.03
2017-06-23T13:59:42.353Z,6.80
2017-06-23T14:02:11.436Z,6.77
2017-06-23T14:04:39.672Z,7.27
2017-06-23T14:07:07.992Z,7.67
2017-06-23T14:09:36.245Z,6.97
2017-06-23T14:12:04.602Z,6.70
2017-06-23T14:14:32.938Z,7.30
2017-06-23T14:17:02.044Z,6.73
2017-06-23T14:19:31.025Z,7.47
2017-06-23T14:22:00.041Z,7.10
2017-06-23T14:24:28.304Z,7.37
2017-06-23T14:26:56.605Z,6.70
2017-06-23T14:29:24.848Z,6.40
2017-06-23T14:31:53.868Z,7.83
2017-06-23T14:34:22.122Z,6.80
2017-06-23T14:36:50.374Z,7.07
2017-06-23T14:39:19.472Z,7.37
2017-06-23T14:41:48.492Z,6.60
2017-06-23T14:44:16.744Z,7.33
2017-06-23T14:46:45.838Z,7.57
2017-06-23T14:49:14.980Z,6.57
2017-06-23T14:51:43.460Z,6.83
2017-06-23T14:54:11.780Z,7.67
2017-06-23T14:56:40.109Z,7.23
2017-06-23T14:59:08.409Z,8.57
2017-06-23T15:01:36.645Z,7.47
2017-06-23T15:04:04.973Z,7.37
2017-06-23T15:06:33.215Z,6.83
2017-06-23T15:09:01.586Z,7.07
2017-06-23T15:11:29.946Z,7.57
2017-06-23T15:13:58.272Z,7.07
2017-06-23T15:16:26.546Z,7.53
2017-06-23T15:18:54.793Z,7.03
2017-06-23T15:21:23.089Z,6.90
2017-06-23T15:23:51.345Z,7.57
2017-06-23T15:26:19.573Z,7.90
2017-06-23T15:28:48.614Z,7.00
2017-06-23T15:31:16.872Z,6.87
2017-06-23T15:33:45.127Z,7.10
2017-06-23T15:36:13.476Z,7.00
2017-06-23T15:38:41.864Z,6.20
2017-06-23T15:41:10.101Z,6.67
2017-06-23T15:43:38.463Z,7.03
2017-06-23T15:46:06.701Z,7.47
2017-06-23T15:48:35.729Z,7.37
2017-06-23T15:51:04.046Z,6.97
2017-06-23T15:53:32.284Z,7.03
2017-06-23T15:56:00.637Z,7.40
2017-06-23T15:58:28.901Z,7.00
2017-06-23T16:00:57.928Z,7.10
2017-06-23T16:03:26.215Z,8.37
2017-06-23T16:05:54.496Z,7.30
2017-06-23T16:08:22.737Z,6.40
2017-06-23T16:10:51.029Z,7.00
2017-06-23T16:13:19.270Z,6.77
2017-06-23T16:15:48.302Z,7.93
2017-06-23T16:18:16.573Z,7.00
2017-06-23T16:20:44.912Z,6.03
2017-06-23T16:23:13.967Z,7.60
2017-06-23T16:25:42.221Z,6.60
2017-06-23T16:28:10.570Z,7.80
2017-06-23T16:30:38.908Z,7.97
2017-06-23T16:33:07.153Z,6.70
2017-06-23T16:35:35.400Z,6.83
2017-06-23T16:38:03.740Z,7.80
2017-06-23T16:40:31.989Z,7.07
2017-06-23T16:43:00.250Z,7.53
2017-06-23T16:45:28.497Z,7.40
2017-06-23T16:47:56.801Z,6.97
2017-06-23T16:50:25.054Z,6.40
2017-06-23T16:52:53.293Z,7.40
2017-06-23T16:55:21.540Z,7.00
2017-06-23T16:57:49.800Z,6.60
2017-06-23T17:00:18.054Z,7.17
2017-06-23T17:02:46.366Z,6.93
2017-06-23T17:05:14.637Z,6.30
2017-06-23T17:07:42.956Z,7.10
2017-06-23T17:10:12.026Z,7.60
2017-06-23T17:12:40.270Z,6.20
2017-06-23T17:15:08.703Z,7.60
2017-06-23T17:17:37.024Z,6.53
2017-06-23T17:20:05.269Z,6.60
2017-06-23T17:22:33.580Z,6.67
2017-06-23T17:25:01.879Z,6.77
2017-06-23T17:27:30.133Z,5.47
2017-06-23T17:29:58.369Z,6.00
2017-06-23T17:32:26.624Z,5.73
2017-06-23T17:34:55.633Z,5.70
2017-06-23T17:37:24.648Z,5.50
2017-06-23T17:39:52.886Z,5.83
2017-06-23T17:42:21.131Z,5.53
2017-06-23T17:44:49.377Z,5.93
2017-06-23T17:47:17.712Z,6.10
2017-06-23T17:49:46.048Z,6.60
2017-06-23T17:52:14.410Z,6.60
2017-06-23T17:54:42.643Z,6.20
2017-06-23T17:57:11.795Z,5.70
2017-06-23T17:59:40.053Z,5.50
2017-06-23T18:02:08.393Z,6.70
2017-06-23T18:04:36.641Z,6.17
2017-06-23T18:07:04.985Z,6.20
2017-06-23T18:09:33.221Z,6.13
2017-06-23T18:12:02.299Z,6.30
2017-06-23T18:14:30.633Z,6.17
2017-06-23T18:16:58.892Z,5.60
2017-06-23T18:19:27.185Z,6.53
2017-06-23T18:21:55.441Z,6.17
2017-06-23T18:24:24.221Z,5.53
2017-06-23T18:26:53.305Z,5.80
2017-06-23T18:29:22.321Z,5.60
2017-06-23T18:31:50.674Z,6.00
2017-06-23T18:34:19.773Z,6.70
2017-06-23T18:36:48.789Z,5.40
2017-06-23T18:39:17.124Z,5.93
2017-06-23T18:41:45.425Z,6.73
2017-06-23T18:44:14.549Z,6.13
2017-06-23T18:46:42.830Z,5.70
2017-06-23T18:49:11.102Z,5.53
2017-06-23T18:51:39.414Z,9.80
2017-06-23T18:54:07.656Z,7.07
2017-06-23T18:56:35.903Z,6.03
2017-06-23T18:59:04.201Z,6.27
2017-06-23T19:01:32.541Z,5.90
2017-06-23T19:04:01.556Z,6.20
2017-06-23T19:06:29.792Z,6.43
2017-06-23T19:08:58.117Z,5.60
2017-06-23T19:11:26.459Z,6.70
2017-06-23T19:13:55.519Z,5.83
2017-06-23T19:16:23.749Z,6.40
2017-06-23T19:18:52.041Z,7.00
2017-06-23T19:21:20.284Z,7.23
2017-06-23T19:23:48.613Z,5.67
2017-06-23T19:26:16.849Z,6.40
2017-06-23T19:28:45.190Z,5.50
2017-06-23T19:31:13.415Z,5.87
2017-06-23T19:33:41.657Z,5.90
2017-06-23T19:36:10.671Z,6.87
2017-06-23T19:38:39.009Z,6.50
2017-06-23T19:41:07.272Z,6.13
2017-06-23T19:43:35.515Z,6.40
2017-06-23T19:46:03.834Z,6.20
2017-06-23T19:48:32.120Z,6.73
2017-06-23T19:51:00.353Z,6.70
2017-06-23T19:53:28.590Z,5.87
2017-06-23T19:55:56.919Z,7.20
2017-06-23T19:58:25.268Z,5.70
2017-06-23T20:00:53.537Z,5.87
2017-06-23T20:03:21.785Z,5.60
2017-06-23T20:05:50.844Z,5.30
2017-06-23T20:08:19.075Z,5.83
2017-06-23T20:10:47.364Z,5.50
2017-06-23T20:13:15.612Z,5.73
2017-06-23T20:15:43.933Z,5.30
2017-06-23T20:18:12.556Z,5.20
2017-06-23T20:20:41.568Z,5.13
2017-06-23T20:23:09.822Z,5.53
2017-06-23T20:25:38.142Z,6.17
2017-06-23T20:28:06.413Z,7.47
2017-06-23T20:30:34.666Z,5.60
2017-06-23T20:33:02.931Z,6.33
2017-06-23T20:35:32.058Z,5.97
2017-06-23T20:38:00.298Z,5.47
2017-06-23T20:40:29.312Z,6.00
2017-06-23T20:42:57.636Z,6.80
2017-06-23T20:45:25.941Z,6.17
2017-06-23T20:47:54.145Z,6.60
2017-06-23T20:50:22.374Z,5.70
2017-06-23T20:52:51.118Z,9.23
2017-06-23T20:55:19.370Z,8.73
2017-06-23T20:57:47.670Z,7.90
2017-06-23T21:00:15.905Z,7.60
2017-06-23T21:02:44.918Z,6.30
2017-06-23T21:05:13.217Z,5.97
2017-06-23T21:07:41.464Z,6.23
2017-06-23T21:10:09.781Z,5.17
2017-06-23T21:12:38.035Z,6.67
2017-06-23T21:15:06.271Z,6.27
2017-06-23T21:17:35.331Z,5.43
2017-06-23T21:20:03.575Z,5.87
2017-06-23T21:22:31.820Z,6.00
2017-06-23T21:25:00.835Z,5.87
2017-06-23T21:27:29.141Z,5.60
2017-06-23T21:29:57.399Z,6.07
2017-06-23T21:32:25.669Z,6.00
2017-06-23T21:34:53.971Z,6.03
2017-06-23T21:37:22.220Z,5.70
2017-06-23T21:39:50.477Z,6.10
2017-06-23T21:42:19.594Z,5.43
2017-06-23T21:44:47.926Z,6.00
2017-06-23T21:47:16.153Z,6.77
2017-06-23T21:49:44.393Z,6.13
2017-06-23T21:52:12.724Z,6.30
2017-06-23T21:54:40.968Z,6.67
2017-06-23T21:57:09.257Z,5.67
2017-06-23T21:59:37.583Z,5.97
2017-06-23T22:02:06.582Z,6.20
2017-06-23T22:04:35.709Z,5.60
2017-06-23T22:07:03.952Z,5.40
2017-06-23T22:09:33.028Z,6.20
2017-06-23T22:12:01.282Z,5.77
2017-06-23T22:14:29.542Z,6.20
2017-06-23T22:16:57.870Z,5.80
2017-06-23T22:19:26.901Z,6.13
2017-06-23T22:21:55.143Z,5.80
2017-06-23T22:24:24.254Z,7.13
2017-06-23T22:26:52.613Z,6.20
2017-06-23T22:29:21.761Z,7.20
2017-06-23T22:31:50.025Z,6.20
2017-06-23T22:34:18.318Z,6.70
2017-06-23T22:36:46.559Z,5.70
2017-06-23T22:39:14.848Z,5.67
2017-06-23T22:41:43.248Z,5.50
2017-06-23T22:44:11.600Z,5.17
2017-06-23T22:46:39.896Z,5.60
2017-06-23T22:49:08.143Z,6.00
2017-06-23T22:51:36.442Z,5.10
2017-06-23T22:54:04.689Z,5.63
2017-06-23T22:56:32.926Z,7.33
2017-06-23T22:59:01.965Z,6.63
2017-06-23T23:01:30.223Z,6.27
2017-06-23T23:03:58.475Z,7.40
2017-06-23T23:06:27.473Z,6.80
2017-06-23T23:08:56.498Z,8.03
2017-06-23T23:11:24.733Z,8.77
2017-06-23T23:13:53.873Z,6.70
2017-06-23T23:16:22.117Z,6.87
2017-06-23T23:18:50.464Z,7.03
2017-06-23T23:21:18.732Z,7.10
2017-06-23T23:23:46.972Z,6.83
2017-06-23T23:26:15.232Z,7.90
2017-06-23T23:28:44.225Z,7.47
2017-06-23T23:31:12.475Z,7.17
2017-06-23T23:33:41.486Z,7.53
2017-06-23T23:36:09.745Z,6.90
2017-06-23T23:38:38.804Z,6.57
2017-06-23T23:41:07.058Z,7.70
2017-06-23T23:43:35.290Z,7.00
2017-06-23T23:46:04.904Z,8.17
2017-06-23T23:48:33.934Z,7.77
2017-06-23T23:51:02.184Z,7.87
2017-06-23T23:53:30.416Z,8.30
2017-06-23T23:55:58.666Z,7.90
2017-06-23T23:58:26.932Z,7.20
